Time;durP1;ratioP1;P1;durP2;ratioP2;P2;SDS_P1;SDS_P2;PMS_P1;PMS_P2;Temp;Humidity;BMP_temperature;BMP_pressure;BME280_temperature;BME280_humidity;BME280_pressure;Samples;Min_cycle;Max_cycle;Signal;HPM_P1;HPM_P2
2024/03/04 00:00:15;;;;;;;16.40;14.60;;;9.00;99.90;;;;;;5055953;28;20186;-68
2024/03/04 00:02:41;;;;;;;19.90;15.60;;;9.00;99.90;;;;;;5051860;28;20170;-69
2024/03/04 00:05:06;;;;;;;14.90;12.93;;;9.00;99.90;;;;;;5048425;28;20424;-69
2024/03/04 00:07:32;;;;;;;17.47;13.97;;;9.00;99.90;;;;;;5053943;28;20238;-69
2024/03/04 00:09:57;;;;;;;17.93;13.97;;;8.90;99.90;;;;;;5061557;28;20202;-69
2024/03/04 00:12:23;;;;;;;16.53;13.33;;;8.90;99.90;;;;;;5062762;28;20208;-69
2024/03/04 00:14:49;;;;;;;18.20;13.83;;;8.90;99.90;;;;;;5046834;28;20684;-69
2024/03/04 00:17:14;;;;;;;16.73;15.00;;;8.90;99.90;;;;;;5048928;28;20181;-69
2024/03/04 00:19:40;;;;;;;15.57;13.87;;;8.90;99.90;;;;;;5061231;28;20227;-69
2024/03/04 00:22:06;;;;;;;16.00;12.40;;;8.80;99.90;;;;;;5048816;28;20238;-68
2024/03/04 00:24:32;;;;;;;16.97;14.23;;;8.80;99.90;;;;;;5057518;28;20167;-69
2024/03/04 00:26:58;;;;;;;14.30;11.53;;;8.70;99.90;;;;;;5035006;28;20425;-69
2024/03/04 00:29:23;;;;;;;14.37;12.53;;;8.60;99.90;;;;;;5057700;28;20224;-69
2024/03/04 00:31:49;;;;;;;13.93;12.53;;;8.50;99.90;;;;;;5049784;28;20516;-69
2024/03/04 00:34:15;;;;;;;16.67;13.50;;;8.50;99.90;;;;;;5059253;28;20200;-69
2024/03/04 00:36:40;;;;;;;16.70;14.23;;;8.40;99.90;;;;;;5051223;28;20201;-69
2024/03/04 00:39:09;;;;;;;14.80;13.20;;;8.40;99.90;;;;;;5053180;28;20201;-69
2024/03/04 00:41:34;;;;;;;17.73;14.67;;;8.40;99.90;;;;;;5055973;28;20177;-69
2024/03/04 00:44:00;;;;;;;15.50;13.40;;;8.40;99.90;;;;;;5060185;28;20435;-69
2024/03/04 00:46:26;;;;;;;16.50;13.23;;;8.40;99.90;;;;;;5052340;28;20235;-69
2024/03/04 00:48:51;;;;;;;14.67;13.00;;;8.40;99.90;;;;;;5035565;28;20202;-68
2024/03/04 00:51:17;;;;;;;13.90;12.00;;;8.40;99.90;;;;;;5055584;28;20212;-69
2024/03/04 00:53:46;;;;;;;16.57;13.17;;;8.40;99.90;;;;;;5061088;28;20230;-68
2024/03/04 00:56:13;;;;;;;13.83;12.30;;;8.40;99.90;;;;;;5048534;28;20198;-69
2024/03/04 00:58:39;;;;;;;14.57;12.83;;;8.40;99.90;;;;;;5053596;28;20470;-69
2024/03/04 01:01:05;;;;;;;14.80;12.53;;;8.20;99.90;;;;;;5057856;28;20510;-69
2024/03/04 01:03:31;;;;;;;19.13;13.60;;;8.20;99.90;;;;;;5046436;28;20488;-69
2024/03/04 01:05:59;;;;;;;17.87;13.20;;;8.20;99.90;;;;;;5048908;28;20441;-70
2024/03/04 01:08:25;;;;;;;14.23;12.80;;;8.10;99.90;;;;;;5054083;28;20443;-69
2024/03/04 01:10:51;;;;;;;14.87;13.10;;;8.10;99.90;;;;;;5041443;28;20435;-69
2024/03/04 01:13:19;;;;;;;13.40;11.77;;;8.10;99.90;;;;;;5043064;28;20185;-69
2024/03/04 01:15:44;;;;;;;13.73;12.17;;;8.10;99.90;;;;;;5045750;28;20464;-70
2024/03/04 01:18:10;;;;;;;14.17;11.10;;;8.10;99.90;;;;;;5057869;28;20855;-69
2024/03/04 01:20:38;;;;;;;16.30;12.33;;;8.20;99.90;;;;;;5061217;28;20174;-70
2024/03/04 01:23:03;;;;;;;14.67;11.87;;;8.20;99.90;;;;;;5059448;28;20177;-70
2024/03/04 01:25:29;;;;;;;14.13;11.17;;;8.20;99.90;;;;;;5041015;28;20433;-69
2024/03/04 01:27:54;;;;;;;13.60;12.27;;;8.20;99.90;;;;;;5061937;28;20204;-69
2024/03/04 01:30:20;;;;;;;14.57;12.17;;;8.30;99.90;;;;;;5044747;28;20173;-70
2024/03/04 01:32:46;;;;;;;15.87;12.90;;;8.20;99.90;;;;;;5056664;28;20431;-69
2024/03/04 01:35:12;;;;;;;14.77;11.90;;;8.20;99.90;;;;;;5038666;28;20190;-69
2024/03/04 01:37:40;;;;;;;16.37;11.60;;;8.10;99.90;;;;;;5050967;28;20208;-69
2024/03/04 01:40:07;;;;;;;15.57;11.67;;;8.10;99.90;;;;;;5063124;28;20172;-69
2024/03/04 01:42:32;;;;;;;12.93;10.47;;;8.10;99.90;;;;;;5050008;28;20431;-69
2024/03/04 01:44:58;;;;;;;15.30;11.17;;;8.10;99.90;;;;;;5048333;28;21021;-69
2024/03/04 01:47:25;;;;;;;12.87;10.57;;;8.10;99.90;;;;;;5054024;28;20183;-69
2024/03/04 01:49:51;;;;;;;12.83;11.37;;;8.10;99.90;;;;;;5065917;28;20455;-69
2024/03/04 01:52:17;;;;;;;13.77;11.43;;;8.10;99.90;;;;;;5051633;28;20421;-69
2024/03/04 01:54:47;;;;;;;12.40;11.00;;;8.00;99.90;;;;;;5041179;28;20424;-70
2024/03/04 01:57:17;;;;;;;13.43;11.27;;;8.00;99.90;;;;;;5049929;28;20518;-70
2024/03/04 01:59:45;;;;;;;13.50;12.20;;;7.90;99.90;;;;;;5063344;28;20443;-69
2024/03/04 02:02:11;;;;;;;13.60;11.13;;;8.00;99.90;;;;;;5038368;28;20824;-68
2024/03/04 02:04:40;;;;;;;13.47;11.70;;;7.90;99.90;;;;;;5039557;28;20429;-69
2024/03/04 02:07:06;;;;;;;14.23;11.93;;;7.90;99.90;;;;;;5035993;28;20443;-69
2024/03/04 02:09:32;;;;;;;14.13;11.10;;;7.80;99.90;;;;;;5049103;28;20463;-69
2024/03/04 02:11:59;;;;;;;15.20;11.60;;;7.80;99.90;;;;;;5057577;28;20435;-70
2024/03/04 02:14:25;;;;;;;16.47;11.60;;;7.80;99.90;;;;;;5056804;28;20531;-69
2024/03/04 02:16:50;;;;;;;14.07;12.00;;;7.80;99.90;;;;;;5062282;28;20550;-69
2024/03/04 02:19:18;;;;;;;13.97;11.40;;;7.80;99.90;;;;;;5050918;28;20441;-69
2024/03/04 02:21:50;;;;;;;13.67;11.80;;;7.70;99.90;;;;;;5059428;28;20177;-69
2024/03/04 02:24:15;;;;;;;12.57;11.37;;;7.70;99.90;;;;;;5059257;28;20511;-69
2024/03/04 02:26:43;;;;;;;16.37;12.33;;;7.70;99.90;;;;;;5048595;28;20569;-69
2024/03/04 02:29:10;;;;;;;13.23;11.23;;;7.70;99.90;;;;;;5040470;28;20244;-69
2024/03/04 02:31:36;;;;;;;13.70;10.40;;;7.70;99.90;;;;;;5054970;28;20440;-70
2024/03/04 02:34:02;;;;;;;17.43;12.17;;;7.70;99.90;;;;;;5068481;28;20526;-69
2024/03/04 02:36:27;;;;;;;13.07;11.67;;;7.60;99.90;;;;;;5054390;28;20554;-69
2024/03/04 02:38:53;;;;;;;15.70;12.63;;;7.60;99.90;;;;;;5043549;28;20210;-69
2024/03/04 02:41:19;;;;;;;15.13;12.43;;;7.60;99.90;;;;;;5047713;28;20235;-69
2024/03/04 02:43:47;;;;;;;18.80;14.17;;;7.50;99.90;;;;;;5058197;28;20455;-69
2024/03/04 02:46:14;;;;;;;16.90;13.80;;;7.50;99.90;;;;;;5055837;28;20940;-70
2024/03/04 02:48:40;;;;;;;12.40;11.20;;;7.50;99.90;;;;;;5047918;28;20475;-69
2024/03/04 02:51:06;;;;;;;15.37;12.30;;;7.50;99.90;;;;;;5052119;28;20475;-69
2024/03/04 02:53:31;;;;;;;13.30;11.90;;;7.50;99.90;;;;;;5061384;28;20461;-69
2024/03/04 02:55:57;;;;;;;12.57;11.23;;;7.50;99.90;;;;;;5046938;28;20236;-69
2024/03/04 02:58:23;;;;;;;15.13;12.70;;;7.40;99.90;;;;;;5066269;28;20255;-69
2024/03/04 03:00:48;;;;;;;13.90;10.97;;;7.40;99.90;;;;;;5060409;28;20573;-68
2024/03/04 03:03:14;;;;;;;13.10;11.23;;;7.40;99.90;;;;;;5060832;28;20423;-69
2024/03/04 03:05:39;;;;;;;13.63;12.23;;;7.40;99.90;;;;;;5035725;28;20249;-69
2024/03/04 03:08:05;;;;;;;15.97;11.80;;;7.30;99.90;;;;;;5059344;28;20674;-69
2024/03/04 03:10:31;;;;;;;15.20;11.70;;;7.30;99.90;;;;;;5046784;28;20186;-70
2024/03/04 03:12:56;;;;;;;15.50;12.53;;;7.30;99.90;;;;;;5064300;28;20234;-69
2024/03/04 03:15:22;;;;;;;17.20;12.93;;;7.20;99.90;;;;;;5048857;28;20255;-69
2024/03/04 03:17:47;;;;;;;14.27;12.60;;;7.20;99.90;;;;;;5052096;28;20174;-70
2024/03/04 03:20:19;;;;;;;13.80;12.40;;;7.30;99.90;;;;;;5053105;28;20191;-69
2024/03/04 03:22:45;;;;;;;17.20;13.57;;;7.30;99.90;;;;;;5065067;28;20588;-69
2024/03/04 03:25:12;;;;;;;15.70;12.67;;;7.20;99.90;;;;;;5064502;28;21028;-69
2024/03/04 03:27:38;;;;;;;20.17;14.27;;;7.20;99.90;;;;;;5061502;28;20525;-69
2024/03/04 03:30:07;;;;;;;15.07;13.00;;;7.30;99.90;;;;;;5060225;28;20454;-69
2024/03/04 03:32:37;;;;;;;18.27;12.27;;;7.20;99.90;;;;;;5048662;28;20494;-69
2024/03/04 03:35:03;;;;;;;16.50;13.83;;;7.30;99.90;;;;;;5042278;28;20452;-69
2024/03/04 03:37:28;;;;;;;16.93;14.07;;;7.30;99.90;;;;;;5044180;28;20481;-69
2024/03/04 03:39:54;;;;;;;17.30;12.80;;;7.30;99.90;;;;;;5060190;28;20731;-68
2024/03/04 03:42:19;;;;;;;14.23;12.73;;;7.20;99.90;;;;;;5050743;28;20231;-69
2024/03/04 03:44:45;;;;;;;16.17;13.50;;;7.30;99.90;;;;;;5049694;28;20173;-69
2024/03/04 03:47:10;;;;;;;15.80;12.93;;;7.20;99.90;;;;;;5037861;28;20178;-69
2024/03/04 03:49:36;;;;;;;14.47;12.27;;;7.20;99.90;;;;;;5038762;28;20217;-69
2024/03/04 03:52:01;;;;;;;16.47;14.67;;;7.30;99.90;;;;;;5054203;28;20188;-68
2024/03/04 03:54:27;;;;;;;17.20;12.73;;;7.30;99.90;;;;;;5066514;28;20173;-68
2024/03/04 03:56:52;;;;;;;13.67;12.10;;;7.40;99.90;;;;;;5044366;28;20218;-68
2024/03/04 03:59:18;;;;;;;14.70;12.93;;;7.40;99.90;;;;;;5063647;28;20188;-69
2024/03/04 04:01:43;;;;;;;15.20;13.07;;;7.40;99.90;;;;;;5059617;28;20176;-70
2024/03/04 04:04:09;;;;;;;16.43;14.63;;;7.50;99.90;;;;;;5055648;28;20299;-69
2024/03/04 04:06:34;;;;;;;17.17;14.30;;;7.50;99.90;;;;;;5059269;28;20771;-69
2024/03/04 04:09:00;;;;;;;16.40;13.13;;;7.60;99.90;;;;;;5071268;28;20189;-69
2024/03/04 04:11:26;;;;;;;19.77;13.77;;;7.70;99.90;;;;;;5065271;28;20259;-69
2024/03/04 04:13:51;;;;;;;15.07;12.13;;;7.70;99.90;;;;;;5065584;28;20165;-69
2024/03/04 04:16:17;;;;;;;16.13;13.50;;;7.70;99.90;;;;;;5073582;28;20230;-69
2024/03/04 04:18:42;;;;;;;14.00;12.60;;;7.70;99.90;;;;;;5059252;28;20272;-69
2024/03/04 04:21:08;;;;;;;17.13;13.67;;;7.60;99.90;;;;;;5055089;28;20709;-69
2024/03/04 04:23:34;;;;;;;17.17;13.80;;;7.60;99.90;;;;;;5062070;28;20169;-69
2024/03/04 04:26:00;;;;;;;15.33;12.97;;;7.60;99.90;;;;;;5049912;28;20482;-69
2024/03/04 04:28:25;;;;;;;19.50;15.80;;;7.60;99.90;;;;;;5064681;28;20188;-68
2024/03/04 04:30:51;;;;;;;19.17;16.27;;;7.60;99.90;;;;;;5065281;28;20212;-69
2024/03/04 04:33:18;;;;;;;18.83;14.10;;;7.60;99.90;;;;;;5063182;28;20235;-69
2024/03/04 04:35:44;;;;;;;20.97;15.77;;;7.60;99.90;;;;;;5058068;28;20770;-68
2024/03/04 04:38:09;;;;;;;18.80;15.43;;;7.60;99.90;;;;;;5054892;28;20539;-69
2024/03/04 04:40:35;;;;;;;19.77;15.97;;;7.70;99.90;;;;;;5059926;28;20470;-68
2024/03/04 04:43:01;;;;;;;27.73;18.80;;;7.70;99.90;;;;;;5065469;28;20315;-68
2024/03/04 04:45:27;;;;;;;21.83;17.20;;;7.70;99.90;;;;;;5051463;28;20220;-68
2024/03/04 04:47:53;;;;;;;23.40;16.87;;;7.80;99.90;;;;;;5047437;28;20188;-68
2024/03/04 04:50:19;;;;;;;24.07;18.00;;;7.80;99.90;;;;;;5053404;28;20577;-69
2024/03/04 04:52:44;;;;;;;25.60;19.33;;;7.80;99.90;;;;;;5060154;28;20515;-69
2024/03/04 04:55:10;;;;;;;25.43;18.83;;;7.80;99.90;;;;;;5062586;28;20223;-68
2024/03/04 04:57:36;;;;;;;26.00;18.93;;;7.90;99.90;;;;;;5056881;28;20185;-69
2024/03/04 05:00:01;;;;;;;28.50;19.27;;;7.90;99.90;;;;;;5061368;28;20569;-68
2024/03/04 05:02:27;;;;;;;28.33;21.40;;;7.90;99.90;;;;;;5053367;28;20615;-69
2024/03/04 05:04:52;;;;;;;29.23;20.60;;;8.00;99.90;;;;;;5058411;28;20390;-68
2024/03/04 05:07:18;;;;;;;27.40;20.20;;;8.00;99.90;;;;;;5056357;28;20239;-69
2024/03/04 05:09:43;;;;;;;23.80;19.10;;;8.10;99.90;;;;;;5067798;28;20258;-68
2024/03/04 05:12:09;;;;;;;24.83;19.17;;;8.10;99.90;;;;;;5066165;28;20184;-69
2024/03/04 05:14:36;;;;;;;23.97;19.00;;;8.10;99.90;;;;;;5066355;28;20181;-69
2024/03/04 05:17:02;;;;;;;23.50;19.93;;;8.10;99.90;;;;;;5054746;28;20188;-69
2024/03/04 05:19:33;;;;;;;23.40;19.40;;;8.20;99.90;;;;;;5059901;28;20432;-69
2024/03/04 05:21:59;;;;;;;27.57;19.07;;;8.20;99.90;;;;;;5056643;28;20181;-69
2024/03/04 05:24:25;;;;;;;28.07;20.73;;;8.20;99.90;;;;;;5058993;28;20423;-69
2024/03/04 05:26:51;;;;;;;28.20;20.60;;;8.30;99.90;;;;;;5054614;28;20431;-70
2024/03/04 05:29:16;;;;;;;25.27;18.83;;;8.30;99.90;;;;;;5063616;28;20783;-68
2024/03/04 05:31:52;;;;;;;26.60;19.17;;;8.30;99.90;;;;;;5046655;28;20185;-69
2024/03/04 05:34:18;;;;;;;25.90;20.23;;;8.20;99.90;;;;;;5044218;28;20177;-69
2024/03/04 05:36:43;;;;;;;27.03;19.97;;;8.20;99.90;;;;;;5051586;28;21286;-69
2024/03/04 05:39:10;;;;;;;23.90;18.53;;;8.20;99.90;;;;;;5061001;28;20752;-69
2024/03/04 05:41:37;;;;;;;24.80;18.67;;;8.20;99.90;;;;;;5057867;28;20538;-69
2024/03/04 05:44:04;;;;;;;37.00;21.80;;;8.20;99.90;;;;;;5058644;28;20841;-69
2024/03/04 05:46:30;;;;;;;24.10;18.80;;;8.30;99.90;;;;;;5049187;28;20435;-69
2024/03/04 05:48:55;;;;;;;26.13;18.97;;;8.30;99.90;;;;;;5032240;28;20859;-69
2024/03/04 05:51:21;;;;;;;22.90;17.67;;;8.40;99.90;;;;;;5051992;28;20256;-69
2024/03/04 05:53:48;;;;;;;27.90;19.37;;;8.30;99.90;;;;;;5058972;28;20186;-68
2024/03/04 05:56:14;;;;;;;30.20;19.17;;;8.30;99.90;;;;;;5054407;28;20192;-70
2024/03/04 05:58:40;;;;;;;23.60;18.87;;;8.40;99.90;;;;;;5053466;28;20554;-69
2024/03/04 06:01:06;;;;;;;22.20;17.40;;;8.40;99.90;;;;;;5056722;28;21011;-69
2024/03/04 06:03:32;;;;;;;27.90;18.43;;;8.40;99.90;;;;;;5063604;28;20423;-69
2024/03/04 06:05:57;;;;;;;26.97;19.77;;;8.40;99.90;;;;;;5063377;28;20687;-69
2024/03/04 06:08:23;;;;;;;29.90;23.20;;;8.30;99.90;;;;;;5056441;28;20211;-69
2024/03/04 06:10:48;;;;;;;35.83;21.13;;;8.30;99.90;;;;;;5058586;28;20174;-69
2024/03/04 06:13:14;;;;;;;28.90;19.90;;;8.20;99.90;;;;;;5055269;28;20223;-69
2024/03/04 06:15:40;;;;;;;30.17;20.47;;;8.30;99.90;;;;;;5050770;28;20707;-69
2024/03/04 06:18:06;;;;;;;27.13;20.30;;;8.30;99.90;;;;;;5052147;28;20250;-69
2024/03/04 06:20:31;;;;;;;29.43;19.00;;;8.40;99.90;;;;;;5050856;28;20210;-69
2024/03/04 06:22:57;;;;;;;26.50;19.57;;;8.40;99.90;;;;;;5045505;28;20471;-69
2024/03/04 06:25:23;;;;;;;27.63;20.03;;;8.50;99.90;;;;;;5043771;28;20189;-69
2024/03/04 06:27:52;;;;;;;29.53;21.73;;;8.40;99.90;;;;;;5043239;28;20195;-69
2024/03/04 06:30:17;;;;;;;28.73;22.03;;;8.50;99.90;;;;;;5060477;28;20187;-69
2024/03/04 06:32:44;;;;;;;38.37;25.50;;;8.60;99.90;;;;;;5051615;28;20436;-69
2024/03/04 06:35:10;;;;;;;37.10;24.97;;;8.60;99.90;;;;;;5051661;28;20208;-68
2024/03/04 06:37:35;;;;;;;36.60;24.40;;;8.60;99.90;;;;;;5050857;28;20503;-69
2024/03/04 06:40:02;;;;;;;38.77;27.33;;;8.60;99.90;;;;;;5051321;28;20519;-68
2024/03/04 06:42:28;;;;;;;38.13;25.20;;;8.70;99.90;;;;;;5051043;28;20231;-69
2024/03/04 06:44:54;;;;;;;40.20;26.60;;;8.50;99.90;;;;;;5051630;28;20454;-69
2024/03/04 06:47:19;;;;;;;43.03;27.20;;;8.50;99.90;;;;;;5050830;28;20416;-69
2024/03/04 06:49:45;;;;;;;39.57;26.80;;;8.40;99.90;;;;;;5051504;28;20219;-69
2024/03/04 06:52:10;;;;;;;44.73;29.90;;;8.50;99.90;;;;;;5051533;28;20521;-69
2024/03/04 06:54:36;;;;;;;43.83;28.80;;;8.50;99.90;;;;;;5034568;28;20177;-69
2024/03/04 06:57:01;;;;;;;38.53;27.37;;;8.50;99.90;;;;;;5042885;28;20189;-69
2024/03/04 06:59:27;;;;;;;48.20;29.70;;;8.50;99.90;;;;;;5051364;28;20661;-69
2024/03/04 07:01:52;;;;;;;43.40;29.57;;;8.50;99.90;;;;;;5051507;28;20178;-69
2024/03/04 07:04:18;;;;;;;41.07;28.90;;;8.60;99.90;;;;;;5034772;28;20547;-69
2024/03/04 07:06:44;;;;;;;49.63;29.60;;;8.50;99.90;;;;;;5030832;28;20166;-70
2024/03/04 07:09:09;;;;;;;44.90;28.43;;;8.40;99.90;;;;;;5031408;28;20190;-69
2024/03/04 07:11:35;;;;;;;48.53;29.77;;;8.40;99.90;;;;;;5037628;28;20673;-69
2024/03/04 07:14:00;;;;;;;41.90;28.60;;;8.30;99.90;;;;;;5053714;28;20193;-69
2024/03/04 07:16:26;;;;;;;46.07;29.13;;;8.30;99.90;;;;;;5054087;28;20714;-69
2024/03/04 07:18:52;;;;;;;49.80;32.03;;;8.30;99.90;;;;;;5054982;28;20261;-68
2024/03/04 07:21:20;;;;;;;50.13;30.10;;;8.40;99.90;;;;;;5051859;28;20616;-69
2024/03/04 07:23:46;;;;;;;46.30;29.03;;;8.30;99.90;;;;;;5035159;28;20444;-69
2024/03/04 07:26:12;;;;;;;43.70;28.00;;;8.40;99.90;;;;;;5036035;28;20965;-69
2024/03/04 07:28:40;;;;;;;48.93;29.73;;;8.50;99.90;;;;;;5044930;28;20463;-69
2024/03/04 07:31:06;;;;;;;47.47;30.90;;;8.50;99.90;;;;;;5038074;28;20435;-70
2024/03/04 07:33:32;;;;;;;47.60;30.10;;;8.50;99.90;;;;;;5033558;28;20424;-69
2024/03/04 07:35:57;;;;;;;50.83;31.90;;;8.50;99.90;;;;;;5034622;28;20456;-70
2024/03/04 07:38:23;;;;;;;51.33;30.47;;;8.50;99.90;;;;;;5044554;28;20285;-70
2024/03/04 07:40:48;;;;;;;48.33;30.77;;;8.50;99.90;;;;;;5053926;28;20269;-70
2024/03/04 07:43:14;;;;;;;49.13;30.00;;;8.50;99.90;;;;;;5038743;28;20774;-70
2024/03/04 07:45:39;;;;;;;48.97;31.43;;;8.60;99.90;;;;;;5041535;28;20208;-69
2024/03/04 07:48:05;;;;;;;46.37;29.17;;;8.60;99.90;;;;;;5053663;28;20568;-69
2024/03/04 07:50:31;;;;;;;46.20;29.57;;;8.70;99.90;;;;;;5053667;28;20264;-69
2024/03/04 07:52:56;;;;;;;43.87;28.53;;;8.70;99.90;;;;;;5054144;28;20511;-69
2024/03/04 07:55:22;;;;;;;53.07;31.43;;;8.70;99.90;;;;;;5053758;28;20298;-70
2024/03/04 07:57:50;;;;;;;49.60;30.37;;;8.70;99.90;;;;;;5051795;28;20651;-71
2024/03/04 08:00:15;;;;;;;44.63;29.77;;;8.70;99.90;;;;;;5054179;28;20930;-70
2024/03/04 08:02:44;;;;;;;52.33;30.70;;;8.70;99.90;;;;;;5053704;28;20427;-70
2024/03/04 08:05:11;;;;;;;50.77;30.40;;;8.80;99.90;;;;;;5054068;28;20227;-70
2024/03/04 08:07:37;;;;;;;48.00;29.80;;;8.90;99.90;;;;;;5048575;28;20433;-70
2024/03/04 08:10:09;;;;;;;42.27;27.47;;;8.90;99.90;;;;;;5033812;28;20440;-70
2024/03/04 08:12:35;;;;;;;38.57;28.53;;;9.00;99.90;;;;;;5040421;28;20450;-70
2024/03/04 08:15:02;;;;;;;41.27;28.60;;;9.10;99.90;;;;;;5054123;28;20891;-71
2024/03/04 08:17:27;;;;;;;40.93;28.17;;;9.10;99.90;;;;;;5050435;28;20507;-71
2024/03/04 08:19:56;;;;;;;42.03;27.30;;;9.20;99.90;;;;;;5033823;28;20560;-69
2024/03/04 08:22:22;;;;;;;39.10;25.60;;;9.10;99.90;;;;;;5033980;28;20193;-70
2024/03/04 08:24:48;;;;;;;42.93;26.27;;;9.10;99.90;;;;;;5031674;28;20837;-70
2024/03/04 08:27:14;;;;;;;42.20;26.73;;;9.10;99.90;;;;;;5033645;28;20497;-70
2024/03/04 08:29:40;;;;;;;42.97;26.97;;;9.00;99.90;;;;;;5032627;28;20524;-70
2024/03/04 08:32:06;;;;;;;40.43;27.73;;;9.00;99.90;;;;;;5033785;28;20668;-70
2024/03/04 08:34:32;;;;;;;45.10;26.83;;;9.10;99.90;;;;;;5033683;28;20175;-70
2024/03/04 08:36:58;;;;;;;43.30;28.73;;;9.20;99.90;;;;;;5032870;28;20456;-70
2024/03/04 08:39:24;;;;;;;42.30;29.30;;;9.20;99.90;;;;;;5051575;28;20455;-70
2024/03/04 08:41:49;;;;;;;40.63;25.77;;;9.20;99.90;;;;;;5040745;28;20648;-70
2024/03/04 08:44:15;;;;;;;40.53;25.57;;;9.30;99.90;;;;;;5047581;28;20215;-71
2024/03/04 08:46:43;;;;;;;42.43;28.93;;;9.30;99.90;;;;;;5052389;28;20179;-71
2024/03/04 08:49:09;;;;;;;43.37;27.60;;;9.30;99.90;;;;;;5050719;28;20246;-70
2024/03/04 08:51:35;;;;;;;42.73;27.43;;;9.20;99.90;;;;;;5032901;28;20421;-71
2024/03/04 08:54:00;;;;;;;41.23;27.50;;;9.20;99.90;;;;;;5035774;28;20512;-70
2024/03/04 08:56:27;;;;;;;43.57;27.00;;;9.10;99.90;;;;;;5031949;28;20206;-70
2024/03/04 08:58:57;;;;;;;44.90;29.20;;;9.20;99.90;;;;;;5033092;28;20205;-69
2024/03/04 09:01:24;;;;;;;41.10;28.20;;;9.20;99.90;;;;;;5032983;28;20417;-70
2024/03/04 09:03:50;;;;;;;43.77;27.77;;;9.30;99.90;;;;;;5033828;28;20902;-70
2024/03/04 09:06:17;;;;;;;39.97;26.73;;;9.40;99.90;;;;;;5052707;28;20412;-71
2024/03/04 09:08:43;;;;;;;39.37;26.43;;;9.40;99.90;;;;;;5048754;28;20447;-70
2024/03/04 09:11:12;;;;;;;41.43;26.00;;;9.40;99.90;;;;;;5032384;28;20421;-70
2024/03/04 09:13:38;;;;;;;39.67;26.67;;;9.50;99.90;;;;;;5037264;28;20432;-70
2024/03/04 09:16:04;;;;;;;45.60;27.33;;;9.40;99.90;;;;;;5046621;28;20455;-70
2024/03/04 09:18:30;;;;;;;45.37;28.40;;;9.40;99.90;;;;;;5036427;28;20838;-70
2024/03/04 09:20:56;;;;;;;36.83;27.53;;;9.50;99.90;;;;;;5032601;28;20504;-69
2024/03/04 09:23:23;;;;;;;44.00;28.47;;;9.60;99.90;;;;;;5032560;28;20166;-70
2024/03/04 09:25:49;;;;;;;46.67;28.80;;;9.60;99.90;;;;;;5032622;28;20495;-69
2024/03/04 09:28:14;;;;;;;45.67;28.13;;;9.60;99.90;;;;;;5032812;28;20429;-69
2024/03/04 09:30:40;;;;;;;39.90;28.50;;;9.70;99.90;;;;;;5032455;28;20171;-69
2024/03/04 09:33:07;;;;;;;39.57;27.20;;;9.80;99.90;;;;;;5032444;28;20202;-70
2024/03/04 09:35:33;;;;;;;42.50;27.00;;;9.90;99.90;;;;;;5032696;28;20202;-70
2024/03/04 09:37:58;;;;;;;46.93;28.17;;;9.90;99.90;;;;;;5048872;28;20420;-70
2024/03/04 09:40:24;;;;;;;41.80;28.87;;;9.80;99.90;;;;;;5052114;28;20423;-70
2024/03/04 09:42:50;;;;;;;42.57;28.90;;;9.80;99.90;;;;;;5050893;28;20245;-70
2024/03/04 09:45:19;;;;;;;39.67;29.50;;;9.70;99.90;;;;;;5051023;28;20186;-70
2024/03/04 09:47:49;;;;;;;45.17;29.90;;;9.70;99.90;;;;;;5050272;28;20209;-69
2024/03/04 09:50:16;;;;;;;39.40;27.57;;;9.70;99.90;;;;;;5052093;28;20486;-70
2024/03/04 09:52:44;;;;;;;48.60;29.57;;;9.60;99.90;;;;;;5051744;28;20426;-69
2024/03/04 09:55:10;;;;;;;51.13;30.63;;;9.60;99.90;;;;;;5032818;28;20456;-70
2024/03/04 09:57:36;;;;;;;45.73;29.53;;;9.50;99.90;;;;;;5031088;28;20441;-69
2024/03/04 10:00:03;;;;;;;48.43;30.00;;;9.40;99.90;;;;;;5029424;28;20201;-70
2024/03/04 10:02:29;;;;;;;49.57;30.87;;;9.30;99.90;;;;;;5032110;28;20420;-69
2024/03/04 10:04:56;;;;;;;46.67;29.50;;;9.40;99.90;;;;;;5043985;28;20980;-70
2024/03/04 10:07:22;;;;;;;52.90;34.77;;;9.60;99.90;;;;;;5051050;28;20428;-69
2024/03/04 10:09:53;;;;;;;51.07;31.60;;;9.60;99.90;;;;;;5043348;28;20482;-69
2024/03/04 10:12:19;;;;;;;50.67;31.43;;;9.80;99.90;;;;;;5051914;28;20440;-69
2024/03/04 10:14:59;;;;;;;46.17;31.17;;;9.80;99.90;;;;;;5043620;28;20463;-69
2024/03/04 10:17:25;;;;;;;47.80;33.60;;;10.00;99.90;;;;;;5031237;28;20177;-69
2024/03/04 10:20:01;;;;;;;49.00;31.00;;;10.10;99.90;;;;;;5032103;28;20829;-69
2024/03/04 10:22:38;;;;;;;50.50;30.67;;;10.10;99.90;;;;;;5046735;28;20180;-69
2024/03/04 10:25:05;;;;;;;47.90;30.70;;;9.90;99.90;;;;;;5051719;28;20411;-70
2024/03/04 10:27:33;;;;;;;54.60;32.70;;;9.80;99.90;;;;;;5051017;28;21023;-66
2024/03/04 10:30:15;;;;;;;51.90;31.60;;;9.90;99.90;;;;;;5050590;28;20542;-69
2024/03/04 10:32:52;;;;;;;48.03;30.80;;;9.70;99.90;;;;;;5051158;28;20462;-68
2024/03/04 10:35:19;;;;;;;88.03;41.00;;;9.70;99.90;;;;;;5051651;28;20461;-69
2024/03/04 10:37:46;;;;;;;64.10;33.60;;;9.80;99.90;;;;;;5050997;28;20416;-69
2024/03/04 10:40:12;;;;;;;53.27;32.97;;;9.90;99.90;;;;;;5045312;28;20767;-66
2024/03/04 10:42:40;;;;;;;53.87;33.20;;;9.90;99.90;;;;;;5042056;28;20420;-65
2024/03/04 10:45:07;;;;;;;50.90;32.07;;;9.90;99.90;;;;;;5037213;28;20518;-67
2024/03/04 10:47:33;;;;;;;57.10;35.70;;;9.80;99.90;;;;;;5031824;28;20417;-67
2024/03/04 10:49:59;;;;;;;52.57;33.70;;;9.80;99.90;;;;;;5035042;28;20441;-67
2024/03/04 10:52:25;;;;;;;55.37;35.20;;;9.90;99.90;;;;;;5035514;28;20428;-68
2024/03/04 10:54:51;;;;;;;54.07;34.77;;;10.00;99.90;;;;;;5035842;28;20417;-68
2024/03/04 10:57:27;;;;;;;51.20;31.40;;;10.10;99.90;;;;;;5034642;28;20444;-69
2024/03/04 10:59:57;;;;;;;51.27;32.47;;;10.20;99.90;;;;;;5036627;28;20252;-69
2024/03/04 11:02:38;;;;;;;52.43;35.20;;;10.30;99.90;;;;;;5037168;28;20436;-68
2024/03/04 11:05:07;;;;;;;49.00;33.37;;;10.30;99.90;;;;;;5035516;28;20417;-69
2024/03/04 11:07:37;;;;;;;48.60;31.90;;;10.20;99.90;;;;;;5043472;28;20477;-69
2024/03/04 11:10:09;;;;;;;49.80;31.77;;;10.00;99.90;;;;;;5054911;28;20432;-70
2024/03/04 11:12:37;;;;;;;48.43;31.63;;;10.00;99.90;;;;;;5055165;28;20447;-69
2024/03/04 11:15:09;;;;;;;45.60;32.07;;;10.20;99.90;;;;;;5054103;28;20516;-69
2024/03/04 11:17:45;;;;;;;48.73;30.03;;;10.00;99.90;;;;;;5054381;28;20404;-69
2024/03/04 11:20:14;;;;;;;55.73;32.97;;;10.00;99.90;;;;;;5054115;28;20500;-68
2024/03/04 11:22:43;;;;;;;53.73;33.03;;;9.90;99.90;;;;;;5048796;28;20448;-69
2024/03/04 11:25:09;;;;;;;52.50;33.20;;;9.90;99.90;;;;;;5045629;28;20436;-69
2024/03/04 11:27:36;;;;;;;64.47;36.63;;;9.90;99.90;;;;;;5034254;28;20503;-69
2024/03/04 11:30:05;;;;;;;56.17;34.63;;;10.00;99.90;;;;;;5035338;28;20200;-69
2024/03/04 11:32:31;;;;;;;57.13;32.70;;;9.90;99.90;;;;;;5038869;28;20511;-70
2024/03/04 11:35:09;;;;;;;65.13;34.00;;;10.00;99.90;;;;;;5054464;28;20511;-69
2024/03/04 11:38:06;;;;;;;59.37;34.13;;;10.00;99.90;;;;;;5060615;28;20259;-69
2024/03/04 11:40:31;;;;;;;59.27;35.23;;;9.90;99.90;;;;;;5057198;28;20435;-69
2024/03/04 11:42:57;;;;;;;56.97;35.93;;;10.00;99.90;;;;;;5054680;28;20416;-69
2024/03/04 11:45:33;;;;;;;63.27;37.63;;;10.00;99.90;;;;;;5053413;28;20173;-69
2024/03/04 11:47:59;;;;;;;59.70;36.37;;;10.10;99.90;;;;;;5032393;28;20643;-69
2024/03/04 11:50:39;;;;;;;59.93;37.03;;;10.10;99.90;;;;;;5029461;28;20428;-68
2024/03/04 11:53:30;;;;;;;61.23;38.57;;;10.10;99.90;;;;;;5043093;28;20427;-68
2024/03/04 11:55:56;;;;;;;64.33;36.23;;;10.10;99.90;;;;;;5053687;28;20459;-69
2024/03/04 11:58:22;;;;;;;60.47;36.70;;;10.00;99.90;;;;;;5052993;28;20452;-69
2024/03/04 12:00:52;;;;;;;57.37;37.27;;;10.10;99.90;;;;;;5049580;28;20506;-69
2024/03/04 12:03:19;;;;;;;60.73;36.30;;;10.20;99.90;;;;;;5032659;28;20420;-70
2024/03/04 12:05:47;;;;;;;69.77;35.43;;;10.30;99.90;;;;;;5033002;28;20413;-70
2024/03/04 12:08:13;;;;;;;63.63;37.30;;;10.40;99.90;;;;;;5033424;28;20813;-70
2024/03/04 12:10:39;;;;;;;68.50;41.33;;;10.40;99.90;;;;;;5034518;28;20423;-69
2024/03/04 12:13:05;;;;;;;59.87;37.60;;;10.30;99.90;;;;;;5033908;28;20417;-70
2024/03/04 12:15:31;;;;;;;64.53;36.27;;;10.30;99.90;;;;;;5033933;28;20653;-68
2024/03/04 12:17:56;;;;;;;68.87;37.63;;;10.30;99.90;;;;;;5051095;28;20176;-71
2024/03/04 12:20:24;;;;;;;65.40;38.57;;;10.30;99.90;;;;;;5053843;28;20177;-70
2024/03/04 12:22:52;;;;;;;63.53;40.43;;;10.40;99.90;;;;;;5036471;28;20592;-69
2024/03/04 12:25:18;;;;;;;69.63;39.10;;;10.50;99.90;;;;;;5035023;28;20474;-70
2024/03/04 12:27:44;;;;;;;56.03;35.37;;;10.70;99.90;;;;;;5032950;28;20416;-70
2024/03/04 12:30:19;;;;;;;52.57;37.00;;;10.70;99.90;;;;;;5033782;28;20433;-70
2024/03/04 12:32:51;;;;;;;59.17;36.63;;;10.70;99.90;;;;;;5034016;28;20942;-69